createdAt,value
2022-12-03T00:01:20.080Z,30.25
2022-12-03T00:03:47.843Z,32.65
2022-12-03T00:06:15.512Z,32.43
2022-12-03T00:08:42.947Z,29.80
2022-12-03T00:11:10.654Z,30.10
2022-12-03T00:13:38.073Z,27.95
2022-12-03T00:16:05.704Z,28.05
2022-12-03T00:18:33.980Z,29.53
2022-12-03T00:21:01.459Z,29.10
2022-12-03T00:23:28.861Z,28.50
2022-12-03T00:25:56.630Z,30.77
2022-12-03T00:28:24.070Z,26.17
2022-12-03T00:30:54.105Z,34.90
2022-12-03T00:33:22.316Z,29.33
2022-12-03T00:35:49.778Z,27.17
2022-12-03T00:38:17.381Z,28.83
2022-12-03T00:40:45.202Z,28.75
2022-12-03T00:43:12.683Z,26.90
2022-12-03T00:45:40.086Z,25.35
2022-12-03T00:48:07.839Z,28.98
2022-12-03T00:50:35.326Z,28.90
2022-12-03T00:53:02.826Z,28.17
2022-12-03T00:55:30.622Z,29.70
2022-12-03T00:57:58.092Z,28.30
2022-12-03T01:00:25.522Z,26.85
2022-12-03T01:02:53.374Z,28.25
2022-12-03T01:05:20.939Z,26.48
2022-12-03T01:07:48.385Z,27.77
2022-12-03T01:10:16.278Z,34.35
2022-12-03T01:12:44.024Z,28.90
2022-12-03T01:15:11.904Z,29.25
2022-12-03T01:17:39.762Z,30.05
2022-12-03T01:20:08.924Z,29.17
2022-12-03T01:22:36.381Z,29.87
2022-12-03T01:25:04.358Z,28.10
2022-12-03T01:27:31.842Z,26.75
2022-12-03T01:29:59.332Z,25.88
2022-12-03T01:32:27.088Z,28.40
2022-12-03T01:34:56.294Z,28.45
2022-12-03T01:37:25.194Z,27.37
2022-12-03T01:39:53.230Z,26.62
2022-12-03T01:42:32.046Z,29.70
2022-12-03T01:45:00.492Z,29.53
2022-12-03T01:47:31.382Z,31.75
2022-12-03T01:50:13.590Z,30.08
2022-12-03T01:52:41.663Z,33.58
2022-12-03T01:55:15.188Z,31.52
2022-12-03T01:57:46.518Z,29.77
2022-12-03T02:00:22.727Z,32.55
2022-12-03T02:02:58.570Z,26.02
2022-12-03T02:05:28.695Z,29.73
2022-12-03T02:07:56.684Z,27.02
2022-12-03T02:10:31.194Z,32.67
2022-12-03T02:13:08.206Z,31.37
2022-12-03T02:15:36.735Z,33.47
2022-12-03T02:18:05.083Z,28.95
2022-12-03T02:20:38.226Z,31.37
2022-12-03T02:23:08.939Z,28.97
2022-12-03T02:25:37.049Z,30.98
2022-12-03T02:28:05.869Z,30.25
2022-12-03T02:30:34.005Z,27.30
2022-12-03T02:33:01.599Z,30.73
2022-12-03T02:35:35.423Z,32.73
2022-12-03T02:38:10.916Z,30.35
2022-12-03T02:40:38.521Z,29.63
2022-12-03T02:43:06.360Z,29.48
2022-12-03T02:45:40.235Z,30.00
2022-12-03T02:48:17.500Z,29.57
2022-12-03T02:50:57.690Z,31.48
2022-12-03T02:53:31.956Z,32.47
2022-12-03T02:56:00.679Z,29.52
2022-12-03T02:58:31.687Z,32.67
2022-12-03T03:00:59.791Z,28.80
2022-12-03T03:03:28.175Z,32.70
2022-12-03T03:05:56.883Z,29.85
2022-12-03T03:08:25.831Z,30.23
2022-12-03T03:10:53.334Z,30.67
2022-12-03T03:13:21.395Z,33.80
2022-12-03T03:15:48.946Z,32.35
2022-12-03T03:18:16.954Z,33.38
2022-12-03T03:20:45.269Z,33.55
2022-12-03T03:23:12.647Z,31.40
2022-12-03T03:25:42.835Z,32.30
2022-12-03T03:28:10.807Z,31.20
2022-12-03T03:30:39.934Z,31.83
2022-12-03T03:33:07.498Z,33.70
2022-12-03T03:35:36.086Z,34.80
2022-12-03T03:38:03.716Z,31.80
2022-12-03T03:40:31.459Z,34.55
2022-12-03T03:43:00.124Z,37.10
2022-12-03T03:45:29.635Z,32.00
2022-12-03T03:47:58.242Z,34.20
2022-12-03T03:50:28.528Z,35.80
2022-12-03T03:52:56.403Z,37.30
2022-12-03T03:55:24.033Z,37.83
2022-12-03T03:57:51.798Z,34.40
2022-12-03T04:00:19.603Z,37.33
2022-12-03T04:02:47.327Z,37.03
2022-12-03T04:05:20.150Z,35.65
2022-12-03T04:07:48.209Z,35.15
2022-12-03T04:10:34.817Z,39.35
2022-12-03T04:13:02.863Z,37.20
2022-12-03T04:15:30.307Z,39.77
2022-12-03T04:18:16.656Z,37.50
2022-12-03T04:20:44.567Z,37.38
2022-12-03T04:23:12.059Z,37.70
2022-12-03T04:25:58.023Z,43.53
2022-12-03T04:28:44.667Z,36.90
2022-12-03T04:31:30.794Z,37.28
2022-12-03T04:34:16.800Z,36.70
2022-12-03T04:36:44.181Z,33.75
2022-12-03T04:39:11.919Z,36.92
2022-12-03T04:41:39.311Z,36.90
2022-12-03T04:44:25.171Z,36.53
2022-12-03T04:46:52.828Z,37.95
2022-12-03T04:49:20.294Z,34.88
2022-12-03T04:51:47.709Z,34.97
2022-12-03T04:54:15.729Z,32.83
2022-12-03T04:56:43.291Z,33.58
2022-12-03T04:59:15.983Z,31.55
2022-12-03T05:01:44.748Z,33.80
2022-12-03T05:04:13.022Z,33.65
2022-12-03T05:06:41.148Z,29.70
2022-12-03T05:09:09.246Z,31.48
2022-12-03T05:11:36.703Z,31.77
2022-12-03T05:14:04.649Z,31.00
2022-12-03T05:16:32.383Z,28.55
2022-12-03T05:19:00.453Z,31.57
2022-12-03T05:21:27.986Z,29.17
2022-12-03T05:23:55.927Z,29.80
2022-12-03T05:26:23.394Z,27.73
2022-12-03T05:28:51.215Z,30.02
2022-12-03T05:31:19.110Z,30.13
2022-12-03T05:33:46.715Z,31.35
2022-12-03T05:36:14.160Z,32.05
2022-12-03T05:38:41.910Z,32.78
2022-12-03T05:41:27.880Z,31.05
2022-12-03T05:43:55.787Z,33.17
2022-12-03T05:46:23.298Z,32.65
2022-12-03T05:48:50.824Z,36.55
2022-12-03T05:51:18.518Z,32.85
2022-12-03T05:53:46.336Z,32.15
2022-12-03T05:56:13.801Z,29.93
2022-12-03T05:58:41.513Z,29.15
2022-12-03T06:01:08.915Z,33.17
2022-12-03T06:03:36.741Z,29.50
2022-12-03T06:06:04.603Z,30.85
2022-12-03T06:08:32.016Z,31.80
2022-12-03T06:10:59.683Z,32.80
2022-12-03T06:13:27.156Z,31.95
2022-12-03T06:15:54.629Z,32.20
2022-12-03T06:18:22.446Z,28.95
2022-12-03T06:20:49.892Z,27.93
2022-12-03T06:23:17.401Z,27.70
2022-12-03T06:25:45.224Z,27.05
2022-12-03T06:28:12.725Z,27.37
2022-12-03T06:30:40.277Z,31.52
2022-12-03T06:33:07.950Z,26.97
2022-12-03T06:35:35.477Z,29.10
2022-12-03T06:38:03.158Z,27.75
2022-12-03T06:40:30.967Z,28.17
2022-12-03T06:42:58.428Z,28.20
2022-12-03T06:45:25.935Z,27.33
2022-12-03T06:47:54.171Z,26.42
2022-12-03T06:50:21.757Z,25.12
2022-12-03T06:52:49.170Z,31.00
2022-12-03T06:55:17.537Z,28.15
2022-12-03T06:57:45.097Z,29.10
2022-12-03T07:00:13.039Z,29.33
2022-12-03T07:02:40.837Z,29.45
2022-12-03T07:05:08.515Z,32.70
2022-12-03T07:07:36.154Z,32.40
2022-12-03T07:10:04.564Z,32.23
2022-12-03T07:12:32.870Z,28.55
2022-12-03T07:15:00.318Z,33.08
2022-12-03T07:17:29.855Z,27.77
2022-12-03T07:19:57.400Z,30.65
2022-12-03T07:22:24.829Z,33.53
2022-12-03T07:24:52.961Z,35.67
2022-12-03T07:27:20.891Z,32.92
2022-12-03T07:29:48.643Z,29.08
2022-12-03T07:32:16.564Z,29.55
2022-12-03T07:34:43.999Z,32.20
2022-12-03T07:37:11.452Z,28.90
2022-12-03T07:39:40.920Z,29.63
2022-12-03T07:42:09.727Z,32.40
2022-12-03T07:44:37.272Z,29.12
2022-12-03T07:47:05.007Z,31.73
2022-12-03T07:49:32.899Z,30.77
2022-12-03T07:52:00.433Z,31.12
2022-12-03T07:54:28.300Z,31.00
2022-12-03T07:57:01.196Z,29.07
2022-12-03T07:59:29.686Z,32.38
2022-12-03T08:01:57.138Z,32.22
2022-12-03T08:04:24.858Z,30.75
2022-12-03T08:06:52.396Z,32.83
2022-12-03T08:09:19.961Z,27.33
2022-12-03T08:11:48.960Z,29.37
2022-12-03T08:14:18.708Z,30.42
2022-12-03T08:16:47.500Z,30.48
2022-12-03T08:19:17.080Z,32.83
2022-12-03T08:21:45.064Z,32.77
2022-12-03T08:24:15.101Z,33.10
2022-12-03T08:26:49.662Z,31.67
2022-12-03T08:29:19.595Z,32.40
2022-12-03T08:31:52.418Z,30.80
2022-12-03T08:34:22.433Z,30.80
2022-12-03T08:36:52.730Z,30.75
2022-12-03T08:39:39.368Z,27.00
2022-12-03T08:42:38.363Z,30.67
2022-12-03T08:45:28.723Z,26.80
2022-12-03T08:48:02.866Z,29.70
2022-12-03T08:50:32.851Z,27.80
2022-12-03T08:53:27.408Z,28.85
2022-12-03T08:56:16.727Z,28.83
2022-12-03T08:58:47.068Z,29.67
2022-12-03T09:01:24.705Z,30.33
2022-12-03T09:03:54.791Z,27.70
2022-12-03T09:06:22.879Z,29.70
2022-12-03T09:08:50.434Z,24.45
2022-12-03T09:11:18.332Z,21.70
2022-12-03T09:13:45.770Z,27.37
2022-12-03T09:16:13.218Z,23.92
2022-12-03T09:18:40.943Z,24.27
2022-12-03T09:21:08.434Z,24.63
2022-12-03T09:23:35.882Z,24.00
2022-12-03T09:26:03.676Z,25.90
2022-12-03T09:28:31.149Z,24.40
2022-12-03T09:30:59.546Z,21.35
2022-12-03T09:33:27.339Z,21.10
2022-12-03T09:35:54.790Z,23.55
2022-12-03T09:38:22.674Z,23.10
2022-12-03T09:40:50.435Z,25.20
2022-12-03T09:43:18.223Z,23.67
2022-12-03T09:45:46.622Z,22.62
2022-12-03T09:48:16.404Z,24.30
2022-12-03T09:50:43.996Z,22.87
2022-12-03T09:53:18.429Z,20.50
2022-12-03T09:55:47.869Z,26.33
2022-12-03T09:58:18.215Z,25.55
2022-12-03T10:00:48.947Z,24.33
2022-12-03T10:03:19.629Z,24.23
2022-12-03T10:05:48.328Z,25.02
2022-12-03T10:08:21.620Z,24.00
2022-12-03T10:10:52.075Z,26.67
2022-12-03T10:13:26.057Z,22.37
2022-12-03T10:15:56.428Z,24.43
2022-12-03T10:18:30.475Z,26.98
2022-12-03T10:20:58.977Z,24.95
2022-12-03T10:23:29.238Z,24.30
2022-12-03T10:25:59.691Z,25.08
2022-12-03T10:28:32.039Z,23.13
2022-12-03T10:31:01.138Z,22.70
2022-12-03T10:33:34.623Z,22.17
2022-12-03T10:36:21.572Z,23.75
2022-12-03T10:39:14.878Z,25.45
2022-12-03T10:41:44.048Z,25.47
2022-12-03T10:44:21.682Z,22.58
2022-12-03T10:47:10.438Z,24.80
2022-12-03T10:49:39.509Z,25.48
2022-12-03T10:52:24.025Z,22.33
2022-12-03T10:54:53.566Z,23.77
2022-12-03T10:57:21.325Z,22.30
2022-12-03T10:59:49.071Z,22.77
2022-12-03T11:02:20.995Z,27.10
2022-12-03T11:04:48.899Z,25.90
2022-12-03T11:07:19.166Z,25.20
2022-12-03T11:09:48.684Z,26.48
2022-12-03T11:12:20.299Z,25.45
2022-12-03T11:14:51.433Z,25.75
2022-12-03T11:17:25.220Z,24.00
2022-12-03T11:19:53.010Z,24.10
2022-12-03T11:22:27.396Z,27.67
2022-12-03T11:25:29.061Z,26.20
2022-12-03T11:28:11.830Z,24.83
2022-12-03T11:30:48.916Z,26.30
2022-12-03T11:33:32.874Z,27.13
2022-12-03T11:36:03.778Z,24.92
2022-12-03T11:38:40.999Z,26.12
2022-12-03T11:41:15.279Z,26.02
2022-12-03T11:43:51.945Z,22.83
2022-12-03T11:46:25.207Z,22.43
2022-12-03T11:48:54.565Z,23.45
2022-12-03T11:51:23.707Z,24.33
2022-12-03T11:53:52.881Z,24.17
2022-12-03T11:56:24.065Z,24.63
2022-12-03T11:59:00.158Z,27.83
2022-12-03T12:01:38.902Z,25.08
2022-12-03T12:04:08.678Z,28.00
2022-12-03T12:06:44.150Z,26.37
2022-12-03T12:09:11.992Z,28.05
2022-12-03T12:11:41.393Z,24.30
2022-12-03T12:14:10.435Z,20.90
2022-12-03T12:17:03.212Z,25.50
2022-12-03T12:19:40.213Z,25.35
2022-12-03T12:22:17.025Z,27.70
2022-12-03T12:24:51.640Z,27.97
2022-12-03T12:27:45.251Z,28.25
2022-12-03T12:30:18.522Z,26.80
2022-12-03T12:32:56.663Z,29.98
2022-12-03T12:35:26.527Z,29.05
2022-12-03T12:38:18.856Z,27.97
2022-12-03T12:40:49.363Z,29.77
2022-12-03T12:43:24.169Z,29.67
2022-12-03T12:45:56.506Z,24.98
2022-12-03T12:48:26.698Z,25.37
2022-12-03T12:51:09.762Z,27.87
2022-12-03T12:53:39.112Z,30.33
2022-12-03T12:56:27.960Z,28.33
2022-12-03T12:58:57.631Z,25.88
2022-12-03T13:01:27.441Z,27.13
2022-12-03T13:03:55.701Z,24.73
2022-12-03T13:06:28.785Z,28.45
2022-12-03T13:08:57.526Z,29.25
2022-12-03T13:11:34.536Z,26.62
2022-12-03T13:14:10.547Z,27.15
2022-12-03T13:16:38.376Z,25.93
2022-12-03T13:19:22.892Z,33.08
2022-12-03T13:21:52.915Z,28.45
2022-12-03T13:24:30.328Z,26.42
2022-12-03T13:27:00.096Z,27.13
2022-12-03T13:29:27.902Z,23.70
2022-12-03T13:32:35.641Z,25.08
2022-12-03T13:35:16.139Z,22.98
2022-12-03T13:37:43.787Z,25.85
2022-12-03T13:40:24.946Z,24.10
2022-12-03T13:42:53.167Z,23.03
2022-12-03T13:45:25.352Z,24.42
2022-12-03T13:47:58.701Z,21.85
2022-12-03T13:50:33.098Z,26.95
2022-12-03T13:53:02.508Z,20.80
2022-12-03T13:55:31.459Z,24.03
2022-12-03T13:57:59.023Z,20.92
2022-12-03T14:00:26.522Z,22.37
2022-12-03T14:02:54.397Z,21.48
2022-12-03T14:05:21.932Z,23.77
2022-12-03T14:07:49.480Z,20.90
2022-12-03T14:10:17.594Z,22.83
2022-12-03T14:12:45.056Z,22.15
2022-12-03T14:15:12.587Z,22.35
2022-12-03T14:17:40.304Z,22.95
2022-12-03T14:20:08.311Z,20.13
2022-12-03T14:22:38.156Z,20.65
2022-12-03T14:25:07.112Z,20.30
2022-12-03T14:27:34.678Z,22.60
2022-12-03T14:30:02.625Z,22.75
2022-12-03T14:32:30.494Z,20.07
2022-12-03T14:34:57.878Z,19.60
2022-12-03T14:37:25.345Z,18.30
2022-12-03T14:39:53.485Z,17.95
2022-12-03T14:42:21.190Z,18.77
2022-12-03T14:44:50.013Z,18.03
2022-12-03T14:47:20.344Z,19.45
2022-12-03T14:49:47.898Z,18.90
2022-12-03T14:52:15.510Z,18.12
2022-12-03T14:54:43.331Z,23.87
2022-12-03T14:57:12.803Z,17.93
2022-12-03T14:59:44.451Z,18.98
2022-12-03T15:02:12.752Z,21.08
2022-12-03T15:04:41.209Z,21.80
2022-12-03T15:07:09.082Z,19.92
2022-12-03T15:09:37.028Z,20.20
2022-12-03T15:12:05.917Z,22.25
2022-12-03T15:14:36.326Z,16.98
2022-12-03T15:17:04.106Z,17.40
2022-12-03T15:19:31.607Z,19.27
2022-12-03T15:21:59.195Z,21.47
2022-12-03T15:24:26.930Z,19.25
2022-12-03T15:26:54.495Z,19.42
2022-12-03T15:29:22.066Z,21.98
2022-12-03T15:31:50.046Z,21.02
2022-12-03T15:34:22.382Z,22.77
2022-12-03T15:36:51.027Z,19.23
2022-12-03T15:39:19.139Z,21.55
2022-12-03T15:41:46.603Z,22.48
2022-12-03T15:44:14.355Z,21.40
2022-12-03T15:46:41.867Z,23.53
2022-12-03T15:49:09.609Z,24.20
2022-12-03T15:51:37.360Z,19.75
2022-12-03T15:54:05.064Z,20.65
2022-12-03T15:56:32.684Z,20.75
2022-12-03T15:59:00.502Z,20.07
2022-12-03T16:01:28.033Z,22.17
2022-12-03T16:03:55.914Z,22.08
2022-12-03T16:06:23.290Z,21.10
2022-12-03T16:08:50.689Z,20.25
2022-12-03T16:11:18.679Z,18.97
2022-12-03T16:13:46.225Z,18.12
2022-12-03T16:16:13.828Z,19.00
2022-12-03T16:18:43.243Z,20.98
2022-12-03T16:21:10.755Z,20.50
2022-12-03T16:23:38.119Z,18.17
2022-12-03T16:26:05.946Z,17.55
2022-12-03T16:28:33.413Z,18.27
2022-12-03T16:31:00.929Z,16.08
2022-12-03T16:33:28.682Z,17.45
2022-12-03T16:35:56.055Z,17.13
2022-12-03T16:38:24.611Z,20.05
2022-12-03T16:40:52.371Z,18.10
2022-12-03T16:43:19.992Z,17.25
2022-12-03T16:45:56.616Z,16.65
2022-12-03T16:48:24.408Z,18.40
2022-12-03T16:50:53.255Z,17.42
2022-12-03T16:53:20.750Z,18.05
2022-12-03T16:55:48.455Z,17.65
2022-12-03T16:58:18.651Z,16.27
2022-12-03T17:00:46.384Z,17.40
2022-12-03T17:03:14.353Z,20.35
2022-12-03T17:05:41.841Z,19.40
2022-12-03T17:08:09.374Z,18.87
2022-12-03T17:10:37.439Z,20.12
2022-12-03T17:13:09.703Z,21.30
2022-12-03T17:15:38.532Z,21.27
2022-12-03T17:18:06.717Z,21.00
2022-12-03T17:20:35.809Z,19.40
2022-12-03T17:23:04.126Z,22.02
2022-12-03T17:25:31.593Z,18.47
2022-12-03T17:27:59.045Z,19.75
2022-12-03T17:30:27.010Z,19.15
2022-12-03T17:32:54.458Z,19.87
2022-12-03T17:35:21.962Z,21.17
2022-12-03T17:37:49.715Z,22.60
2022-12-03T17:40:18.143Z,20.73
2022-12-03T17:42:45.592Z,20.73
2022-12-03T17:45:13.695Z,22.95
2022-12-03T17:47:41.311Z,24.58
2022-12-03T17:50:09.237Z,24.47
2022-12-03T17:52:37.002Z,24.80
2022-12-03T17:55:16.262Z,23.30
2022-12-03T17:57:49.458Z,27.20
2022-12-03T18:00:17.294Z,25.15
2022-12-03T18:02:45.025Z,26.97
2022-12-03T18:05:14.143Z,29.80
2022-12-03T18:07:41.701Z,27.05
2022-12-03T18:10:09.910Z,27.48
2022-12-03T18:12:37.675Z,28.58
2022-12-03T18:15:05.347Z,27.83
2022-12-03T18:17:33.115Z,30.70
2022-12-03T18:20:00.768Z,28.50
2022-12-03T18:22:28.463Z,29.27
2022-12-03T18:24:56.549Z,32.20
2022-12-03T18:27:24.250Z,30.77
2022-12-03T18:29:51.941Z,33.10
2022-12-03T18:32:28.883Z,31.98
2022-12-03T18:34:57.744Z,30.92
2022-12-03T18:37:29.614Z,31.92
2022-12-03T18:39:58.146Z,30.17
2022-12-03T18:42:26.703Z,28.38
2022-12-03T18:44:55.434Z,29.08
2022-12-03T18:47:28.184Z,35.33
2022-12-03T18:49:56.540Z,29.73
2022-12-03T18:52:25.197Z,29.43
2022-12-03T18:54:52.986Z,33.78
2022-12-03T18:57:20.794Z,29.45
2022-12-03T18:59:48.235Z,32.10
2022-12-03T19:02:39.003Z,27.75
2022-12-03T19:05:07.565Z,27.40
2022-12-03T19:07:35.435Z,32.45
2022-12-03T19:10:03.961Z,28.87
2022-12-03T19:12:32.596Z,28.95
2022-12-03T19:15:00.036Z,31.12
2022-12-03T19:17:27.935Z,31.00
2022-12-03T19:19:55.884Z,33.38
2022-12-03T19:22:23.978Z,34.30
2022-12-03T19:24:51.467Z,32.63
2022-12-03T19:27:19.471Z,32.10
2022-12-03T19:29:50.145Z,33.10
2022-12-03T19:32:17.774Z,34.30
2022-12-03T19:34:45.522Z,32.63
2022-12-03T19:37:13.062Z,33.15
2022-12-03T19:39:41.318Z,39.00
2022-12-03T19:42:09.960Z,39.77
2022-12-03T19:44:37.470Z,37.72
2022-12-03T19:47:04.950Z,35.97
2022-12-03T19:49:32.855Z,37.60
2022-12-03T19:52:00.291Z,35.25
2022-12-03T19:54:27.963Z,34.70
2022-12-03T19:56:55.743Z,37.10
2022-12-03T19:59:23.979Z,41.08
2022-12-03T20:01:51.510Z,31.75
2022-12-03T20:04:19.342Z,35.50
2022-12-03T20:06:47.544Z,37.27
2022-12-03T20:09:18.354Z,37.58
2022-12-03T20:11:46.170Z,37.45
2022-12-03T20:14:15.403Z,39.42
2022-12-03T20:16:44.530Z,35.88
2022-12-03T20:19:14.089Z,33.07
2022-12-03T20:21:42.387Z,37.63
2022-12-03T20:24:15.364Z,35.78
2022-12-03T20:26:43.309Z,36.03
2022-12-03T20:29:10.907Z,37.45
2022-12-03T20:31:38.399Z,36.77
2022-12-03T20:34:07.082Z,35.65
2022-12-03T20:36:34.640Z,36.45
2022-12-03T20:39:04.383Z,34.40
2022-12-03T20:41:34.742Z,35.22
2022-12-03T20:44:03.143Z,32.90
2022-12-03T20:46:31.508Z,33.03
2022-12-03T20:48:59.456Z,33.83
2022-12-03T20:51:29.819Z,32.85
2022-12-03T20:53:58.757Z,33.63
2022-12-03T20:56:31.212Z,33.83
2022-12-03T20:59:07.359Z,33.55
2022-12-03T21:01:36.314Z,31.12
2022-12-03T21:04:05.219Z,31.60
2022-12-03T21:06:34.270Z,38.50
2022-12-03T21:09:03.962Z,34.97
2022-12-03T21:11:32.467Z,35.28
2022-12-03T21:14:00.104Z,32.20
2022-12-03T21:17:05.959Z,33.03
2022-12-03T21:19:20.387Z,32.83
2022-12-03T21:21:48.641Z,32.20
2022-12-03T21:24:16.098Z,32.60
2022-12-03T21:26:43.579Z,32.28
2022-12-03T21:29:11.502Z,34.00
2022-12-03T21:31:39.978Z,33.85
2022-12-03T21:34:08.678Z,33.63
2022-12-03T21:36:36.549Z,38.20
2022-12-03T21:39:05.977Z,36.45
2022-12-03T21:41:35.158Z,37.20
2022-12-03T21:44:03.198Z,37.15
2022-12-03T21:47:11.762Z,36.33
2022-12-03T21:49:20.178Z,39.17
2022-12-03T21:51:47.690Z,34.97
2022-12-03T21:54:15.431Z,39.75
2022-12-03T21:56:43.203Z,38.88
2022-12-03T21:59:10.631Z,37.63
2022-12-03T22:01:40.637Z,42.45
2022-12-03T22:04:14.690Z,43.22
2022-12-03T22:06:42.136Z,39.67
2022-12-03T22:09:09.531Z,41.88
2022-12-03T22:11:37.300Z,42.50
2022-12-03T22:14:06.722Z,36.88
2022-12-03T22:16:34.214Z,37.72
2022-12-03T22:19:01.992Z,39.05
2022-12-03T22:21:30.223Z,40.92
2022-12-03T22:23:57.648Z,43.63
2022-12-03T22:26:25.568Z,37.58
2022-12-03T22:28:53.019Z,38.63
2022-12-03T22:31:20.984Z,37.42
2022-12-03T22:33:49.685Z,42.80
2022-12-03T22:36:21.039Z,41.00
2022-12-03T22:38:50.285Z,45.97
2022-12-03T22:41:18.180Z,38.80
2022-12-03T22:43:46.518Z,40.38
2022-12-03T22:46:14.713Z,39.80
2022-12-03T22:48:43.219Z,42.27
2022-12-03T22:51:17.589Z,41.15
2022-12-03T22:53:45.344Z,38.63
2022-12-03T22:56:12.904Z,41.22
2022-12-03T22:58:40.692Z,34.78
2022-12-03T23:01:08.891Z,36.10
2022-12-03T23:03:37.075Z,40.40
2022-12-03T23:06:11.861Z,34.78
2022-12-03T23:08:39.863Z,37.03
2022-12-03T23:11:07.858Z,36.17
2022-12-03T23:13:35.467Z,38.27
2022-12-03T23:16:04.244Z,36.33
2022-12-03T23:18:32.036Z,33.38
2022-12-03T23:21:00.867Z,34.40
2022-12-03T23:23:28.641Z,37.15
2022-12-03T23:26:02.869Z,37.83
2022-12-03T23:28:31.601Z,38.20
2022-12-03T23:30:59.238Z,37.22
2022-12-03T23:33:27.202Z,37.20
2022-12-03T23:35:55.088Z,34.83
2022-12-03T23:38:22.748Z,37.03
2022-12-03T23:40:52.898Z,36.67
2022-12-03T23:43:20.594Z,33.33
2022-12-03T23:45:48.104Z,38.58
2022-12-03T23:48:15.631Z,38.13
2022-12-03T23:50:43.341Z,35.83
2022-12-03T23:53:10.784Z,38.28
2022-12-03T23:55:39.983Z,37.00
2022-12-03T23:58:08.025Z,34.88
